createdAt,value
2022-08-20T00:00:49.003Z,56.62
2022-08-20T00:03:15.367Z,56.59
2022-08-20T00:05:41.746Z,56.85
2022-08-20T00:08:08.114Z,56.82
2022-08-20T00:10:34.480Z,56.63
2022-08-20T00:13:00.864Z,56.69
2022-08-20T00:15:27.242Z,57.01
2022-08-20T00:17:53.616Z,56.55
2022-08-20T00:20:20.007Z,56.51
2022-08-20T00:22:46.390Z,56.65
2022-08-20T00:25:12.779Z,56.85
2022-08-20T00:27:39.160Z,56.97
2022-08-20T00:30:05.516Z,57.26
2022-08-20T00:32:31.893Z,57.16
2022-08-20T00:34:58.267Z,57.76
2022-08-20T00:37:24.624Z,57.18
2022-08-20T00:39:51.031Z,57.33
2022-08-20T00:42:17.430Z,57.38
2022-08-20T00:44:43.800Z,57.35
2022-08-20T00:47:10.167Z,57.60
2022-08-20T00:49:36.538Z,57.10
2022-08-20T00:52:02.892Z,57.21
2022-08-20T00:54:29.271Z,57.45
2022-08-20T00:56:55.655Z,57.31
2022-08-20T00:59:22.026Z,57.45
2022-08-20T01:01:55.771Z,57.29
2022-08-20T01:04:22.732Z,57.03
2022-08-20T01:06:49.093Z,56.97
2022-08-20T01:09:15.465Z,56.99
2022-08-20T01:11:42.142Z,56.80
2022-08-20T01:14:08.505Z,56.95
2022-08-20T01:16:35.913Z,57.03
2022-08-20T01:19:06.986Z,57.03
2022-08-20T01:21:53.325Z,57.11
2022-08-20T01:24:19.693Z,57.55
2022-08-20T01:26:46.063Z,57.73
2022-08-20T01:29:12.435Z,56.77
2022-08-20T01:31:38.809Z,57.00
2022-08-20T01:34:05.189Z,56.79
2022-08-20T01:36:31.558Z,57.63
2022-08-20T01:38:57.940Z,57.99
2022-08-20T01:41:28.346Z,57.80
2022-08-20T01:43:55.268Z,57.43
2022-08-20T01:46:21.626Z,57.67
2022-08-20T01:48:48.463Z,57.55
2022-08-20T01:51:14.830Z,57.23
2022-08-20T01:53:41.223Z,57.26
2022-08-20T01:56:07.590Z,57.61
2022-08-20T01:58:33.948Z,57.66
2022-08-20T02:01:00.316Z,57.99
2022-08-20T02:03:26.705Z,57.89
2022-08-20T02:05:53.079Z,57.33
2022-08-20T02:08:19.464Z,57.88
2022-08-20T02:10:45.855Z,57.37
2022-08-20T02:13:12.229Z,57.46
2022-08-20T02:15:39.939Z,57.19
2022-08-20T02:18:09.547Z,57.39
2022-08-20T02:20:35.911Z,57.50
2022-08-20T02:23:02.285Z,57.72
2022-08-20T02:25:28.656Z,57.15
2022-08-20T02:27:55.194Z,57.32
2022-08-20T02:30:28.079Z,57.32
2022-08-20T02:32:56.373Z,57.48
2022-08-20T02:35:22.858Z,57.36
2022-08-20T02:37:49.242Z,57.67
2022-08-20T02:40:15.666Z,57.33
2022-08-20T02:42:42.095Z,57.32
2022-08-20T02:45:09.418Z,56.91
2022-08-20T02:47:42.283Z,57.15
2022-08-20T02:50:08.653Z,57.22
2022-08-20T02:52:35.020Z,57.67
2022-08-20T02:55:01.388Z,57.29
2022-08-20T02:57:27.750Z,57.41
2022-08-20T02:59:54.135Z,57.44
2022-08-20T03:02:20.501Z,57.50
2022-08-20T03:04:46.875Z,57.27
2022-08-20T03:07:13.233Z,57.66
2022-08-20T03:09:39.595Z,57.52
2022-08-20T03:12:05.949Z,57.84
2022-08-20T03:14:32.329Z,57.95
2022-08-20T03:16:58.707Z,58.18
2022-08-20T03:19:25.064Z,57.69
2022-08-20T03:21:51.443Z,58.04
2022-08-20T03:24:17.813Z,57.21
2022-08-20T03:26:44.180Z,57.50
2022-08-20T03:29:10.553Z,57.60
2022-08-20T03:31:36.918Z,57.65
2022-08-20T03:34:03.293Z,57.73
2022-08-20T03:36:29.660Z,57.64
2022-08-20T03:38:56.033Z,57.44
2022-08-20T03:41:22.400Z,57.64
2022-08-20T03:43:48.763Z,57.83
2022-08-20T03:46:23.111Z,57.66
2022-08-20T03:48:50.079Z,57.80
2022-08-20T03:51:22.964Z,57.88
2022-08-20T03:53:49.405Z,57.75
2022-08-20T03:56:15.769Z,57.60
2022-08-20T03:58:42.146Z,57.32
2022-08-20T04:01:36.835Z,57.09
2022-08-20T04:03:55.291Z,57.43
2022-08-20T04:06:21.769Z,57.35
2022-08-20T04:08:48.150Z,57.60
2022-08-20T04:11:14.515Z,58.19
2022-08-20T04:13:41.949Z,57.47
2022-08-20T04:16:12.829Z,57.64
2022-08-20T04:18:40.788Z,57.76
2022-08-20T04:21:07.162Z,58.04
2022-08-20T04:23:33.532Z,57.69
2022-08-20T04:25:59.894Z,57.88
2022-08-20T04:28:26.262Z,58.15
2022-08-20T04:30:52.626Z,57.71
2022-08-20T04:33:19.236Z,57.97
2022-08-20T04:36:00.014Z,57.88
2022-08-20T04:38:26.372Z,57.96
2022-08-20T04:41:23.223Z,57.88
2022-08-20T04:43:50.309Z,58.00
2022-08-20T04:46:16.672Z,57.68
2022-08-20T04:48:47.550Z,57.84
2022-08-20T04:51:16.657Z,57.71
2022-08-20T04:53:43.037Z,57.83
2022-08-20T04:56:09.424Z,57.96
2022-08-20T04:58:35.790Z,57.92
2022-08-20T05:01:02.196Z,57.76
2022-08-20T05:03:28.572Z,57.87
2022-08-20T05:05:54.932Z,57.65
2022-08-20T05:08:21.305Z,57.87
2022-08-20T05:10:47.672Z,57.71
2022-08-20T05:13:14.038Z,57.81
2022-08-20T05:15:40.401Z,58.23
2022-08-20T05:18:06.773Z,58.05
2022-08-20T05:20:33.157Z,57.87
2022-08-20T05:22:59.525Z,57.96
2022-08-20T05:25:25.893Z,57.77
2022-08-20T05:27:52.261Z,58.05
2022-08-20T05:30:18.732Z,58.06
2022-08-20T05:32:45.693Z,57.92
2022-08-20T05:35:12.059Z,58.32
2022-08-20T05:37:38.424Z,57.62
2022-08-20T05:40:04.979Z,57.79
2022-08-20T05:42:31.364Z,57.65
2022-08-20T05:44:57.725Z,58.18
2022-08-20T05:47:24.099Z,58.47
2022-08-20T05:49:50.474Z,58.61
2022-08-20T05:52:16.831Z,58.57
2022-08-20T05:54:43.185Z,57.84
2022-08-20T05:57:09.592Z,58.65
2022-08-20T05:59:36.012Z,58.28
2022-08-20T06:02:02.375Z,58.52
2022-08-20T06:04:28.792Z,58.17
2022-08-20T06:06:55.176Z,58.08
2022-08-20T06:09:28.059Z,58.38
2022-08-20T06:11:59.412Z,58.20
2022-08-20T06:14:30.898Z,58.45
2022-08-20T06:16:59.160Z,58.65
2022-08-20T06:19:26.373Z,57.80
2022-08-20T06:21:53.268Z,58.16
2022-08-20T06:24:20.461Z,58.19
2022-08-20T06:26:46.883Z,58.42
2022-08-20T06:29:13.244Z,58.40
2022-08-20T06:31:39.613Z,58.92
2022-08-20T06:34:05.985Z,60.01
2022-08-20T06:36:32.354Z,60.21
2022-08-20T06:38:58.711Z,59.73
2022-08-20T06:41:32.597Z,60.24
2022-08-20T06:44:02.717Z,60.14
2022-08-20T06:46:29.085Z,59.80
2022-08-20T06:48:55.441Z,60.43
2022-08-20T06:51:21.813Z,59.87
2022-08-20T06:53:48.172Z,59.56
2022-08-20T06:56:14.551Z,59.04
2022-08-20T06:58:40.926Z,59.23
2022-08-20T07:01:10.364Z,59.64
2022-08-20T07:03:37.281Z,59.74
2022-08-20T07:06:03.640Z,59.71
2022-08-20T07:08:29.992Z,60.01
2022-08-20T07:10:56.366Z,59.24
2022-08-20T07:13:22.728Z,59.54
2022-08-20T07:15:53.093Z,59.47
2022-08-20T07:18:28.761Z,59.77
2022-08-20T07:20:55.425Z,59.63
2022-08-20T07:23:21.795Z,59.78
2022-08-20T07:25:48.151Z,59.92
2022-08-20T07:28:14.532Z,59.89
2022-08-20T07:30:56.420Z,59.56
2022-08-20T07:33:24.108Z,60.06
2022-08-20T07:35:50.994Z,59.91
2022-08-20T07:38:17.361Z,59.76
2022-08-20T07:40:43.738Z,60.16
2022-08-20T07:43:10.117Z,59.79
2022-08-20T07:45:37.904Z,59.94
2022-08-20T07:48:04.258Z,60.21
2022-08-20T07:50:30.629Z,59.63
2022-08-20T07:52:57.188Z,59.46
2022-08-20T07:55:23.693Z,59.96
2022-08-20T07:57:50.066Z,59.98
2022-08-20T08:00:16.425Z,59.51
2022-08-20T08:02:42.794Z,59.40
2022-08-20T08:05:09.152Z,59.21
2022-08-20T08:07:35.517Z,59.80
2022-08-20T08:10:04.113Z,59.39
2022-08-20T08:12:30.484Z,59.32
2022-08-20T08:14:56.851Z,59.57
2022-08-20T08:17:23.218Z,59.81
2022-08-20T08:19:49.591Z,59.67
2022-08-20T08:22:15.947Z,59.45
2022-08-20T08:24:42.315Z,59.97
2022-08-20T08:27:23.334Z,59.05
2022-08-20T08:29:49.726Z,58.67
2022-08-20T08:32:16.987Z,59.19
2022-08-20T08:34:43.351Z,59.58
2022-08-20T08:37:09.768Z,59.49
2022-08-20T08:39:36.142Z,59.49
2022-08-20T08:42:03.503Z,59.56
2022-08-20T08:44:29.922Z,59.67
2022-08-20T08:46:56.305Z,59.46
2022-08-20T08:49:22.677Z,59.39
2022-08-20T08:51:49.045Z,59.50
2022-08-20T08:54:15.427Z,59.87
2022-08-20T08:56:41.801Z,59.76
2022-08-20T08:59:09.917Z,59.52
2022-08-20T09:01:54.914Z,59.21
2022-08-20T09:04:22.642Z,59.21
2022-08-20T09:06:52.162Z,59.76
2022-08-20T09:09:18.805Z,59.74
2022-08-20T09:11:45.172Z,59.34
2022-08-20T09:14:11.542Z,59.63
2022-08-20T09:16:52.084Z,59.81
2022-08-20T09:19:19.525Z,59.90
2022-08-20T09:21:45.919Z,59.35
2022-08-20T09:24:12.277Z,59.87
2022-08-20T09:26:39.279Z,60.17
2022-08-20T09:29:05.732Z,60.16
2022-08-20T09:31:32.661Z,60.00
2022-08-20T09:33:59.478Z,59.81
2022-08-20T09:36:31.895Z,59.23
2022-08-20T09:39:00.810Z,58.97
2022-08-20T09:41:30.387Z,59.13
2022-08-20T09:43:56.749Z,58.84
2022-08-20T09:46:27.360Z,59.07
2022-08-20T09:48:54.020Z,59.17
2022-08-20T09:51:20.456Z,58.84
2022-08-20T09:53:46.808Z,59.10
2022-08-20T09:56:13.181Z,59.02
2022-08-20T09:58:39.556Z,58.58
2022-08-20T10:01:07.798Z,59.12
2022-08-20T10:03:41.707Z,58.83
2022-08-20T10:06:08.232Z,58.65
2022-08-20T10:08:34.599Z,58.56
2022-08-20T10:11:01.149Z,58.63
2022-08-20T10:13:27.527Z,58.79
2022-08-20T10:15:54.202Z,58.63
2022-08-20T10:18:20.576Z,58.86
2022-08-20T10:20:46.936Z,58.63
2022-08-20T10:23:16.086Z,58.74
2022-08-20T10:25:42.469Z,58.55
2022-08-20T10:28:08.834Z,58.55
2022-08-20T10:30:35.261Z,58.60
2022-08-20T10:33:01.624Z,58.62
2022-08-20T10:35:27.997Z,58.24
2022-08-20T10:37:54.367Z,58.40
2022-08-20T10:40:20.818Z,58.45
2022-08-20T10:42:47.264Z,58.39
2022-08-20T10:45:13.624Z,58.37
2022-08-20T10:47:39.998Z,58.33
2022-08-20T10:50:06.364Z,58.44
2022-08-20T10:52:32.736Z,58.32
2022-08-20T10:54:59.104Z,58.41
2022-08-20T10:57:25.473Z,59.07
2022-08-20T10:59:51.833Z,58.64
2022-08-20T11:02:18.278Z,58.55
2022-08-20T11:04:44.684Z,58.21
2022-08-20T11:07:11.057Z,58.18
2022-08-20T11:09:37.424Z,58.06
2022-08-20T11:12:03.789Z,58.47
2022-08-20T11:14:30.153Z,57.81
2022-08-20T11:16:56.532Z,58.04
2022-08-20T11:19:22.892Z,58.21
2022-08-20T11:21:49.266Z,58.00
2022-08-20T11:24:15.641Z,58.27
2022-08-20T11:26:42.026Z,58.89
2022-08-20T11:29:08.398Z,58.22
2022-08-20T11:31:34.817Z,58.24
2022-08-20T11:34:01.240Z,58.21
2022-08-20T11:36:27.616Z,58.27
2022-08-20T11:38:54.002Z,57.90
2022-08-20T11:41:20.370Z,57.99
2022-08-20T11:44:04.706Z,58.60
2022-08-20T11:46:31.566Z,58.40
2022-08-20T11:48:57.958Z,58.19
2022-08-20T11:51:24.332Z,58.35
2022-08-20T11:53:50.692Z,58.00
2022-08-20T11:56:17.313Z,58.29
2022-08-20T11:58:45.668Z,58.47
2022-08-20T12:01:12.035Z,58.30
2022-08-20T12:03:38.414Z,58.16
2022-08-20T12:06:04.772Z,58.19
2022-08-20T12:08:31.448Z,58.43
2022-08-20T12:10:58.030Z,58.12
2022-08-20T12:13:30.664Z,58.70
2022-08-20T12:16:10.744Z,58.19
2022-08-20T12:18:37.118Z,58.16
2022-08-20T12:21:03.482Z,58.16
2022-08-20T12:23:29.845Z,57.99
2022-08-20T12:25:56.196Z,58.13
2022-08-20T12:28:25.907Z,58.36
2022-08-20T12:30:52.470Z,58.25
2022-08-20T12:33:18.830Z,58.22
2022-08-20T12:35:45.198Z,58.06
2022-08-20T12:38:11.566Z,58.31
2022-08-20T12:40:44.292Z,58.05
2022-08-20T12:43:10.653Z,58.24
2022-08-20T12:45:37.006Z,58.48
2022-08-20T12:48:03.357Z,58.78
2022-08-20T12:50:31.590Z,58.44
2022-08-20T12:52:58.646Z,58.27
2022-08-20T12:55:25.185Z,58.30
2022-08-20T12:57:51.557Z,58.12
2022-08-20T13:00:18.485Z,58.46
2022-08-20T13:02:45.202Z,57.80
2022-08-20T13:05:11.580Z,58.23
2022-08-20T13:07:37.927Z,58.06
2022-08-20T13:10:06.050Z,58.38
2022-08-20T13:12:32.467Z,58.16
2022-08-20T13:15:01.212Z,58.04
2022-08-20T13:17:38.174Z,58.16
2022-08-20T13:20:06.680Z,58.24
2022-08-20T13:22:33.049Z,58.09
2022-08-20T13:24:59.416Z,58.19
2022-08-20T13:27:26.462Z,58.32
2022-08-20T13:29:58.168Z,57.90
2022-08-20T13:32:25.057Z,58.14
2022-08-20T13:34:52.482Z,58.00
2022-08-20T13:37:23.103Z,57.89
2022-08-20T13:39:51.401Z,57.89
2022-08-20T13:42:17.818Z,57.97
2022-08-20T13:44:44.179Z,58.40
2022-08-20T13:47:10.537Z,58.19
2022-08-20T13:49:36.897Z,57.70
2022-08-20T13:52:03.323Z,57.65
2022-08-20T13:54:30.064Z,57.50
2022-08-20T13:56:56.882Z,57.68
2022-08-20T13:59:23.254Z,57.51
2022-08-20T14:01:49.681Z,57.62
2022-08-20T14:04:16.086Z,57.66
2022-08-20T14:06:42.445Z,57.60
2022-08-20T14:09:08.833Z,57.45
2022-08-20T14:11:35.201Z,57.70
2022-08-20T14:14:01.565Z,57.30
2022-08-20T14:16:30.358Z,56.95
2022-08-20T14:19:02.069Z,57.62
2022-08-20T14:21:28.437Z,57.58
2022-08-20T14:23:54.800Z,57.50
2022-08-20T14:26:21.179Z,57.44
2022-08-20T14:28:47.548Z,57.08
2022-08-20T14:31:13.914Z,57.38
2022-08-20T14:33:44.431Z,57.26
2022-08-20T14:36:11.101Z,57.01
2022-08-20T14:38:37.473Z,57.04
2022-08-20T14:41:03.854Z,57.08
2022-08-20T14:43:30.209Z,56.97
2022-08-20T14:45:56.593Z,57.12
2022-08-20T14:48:22.955Z,57.14
2022-08-20T14:50:49.318Z,57.15
2022-08-20T14:53:15.679Z,57.00
2022-08-20T14:55:42.048Z,56.99
2022-08-20T14:58:08.425Z,56.75
2022-08-20T15:00:34.808Z,56.85
2022-08-20T15:03:01.176Z,56.70
2022-08-20T15:05:27.544Z,56.55
2022-08-20T15:07:56.140Z,56.82
2022-08-20T15:10:22.497Z,56.72
2022-08-20T15:12:48.848Z,56.44
2022-08-20T15:15:15.853Z,56.70
2022-08-20T15:17:42.554Z,56.75
2022-08-20T15:20:08.907Z,56.69
2022-08-20T15:22:46.235Z,56.94
2022-08-20T15:25:12.607Z,56.86
2022-08-20T15:27:39.693Z,56.92
2022-08-20T15:30:06.058Z,56.87
2022-08-20T15:32:32.421Z,56.67
2022-08-20T15:34:58.793Z,56.66
2022-08-20T15:37:25.164Z,56.96
2022-08-20T15:39:51.575Z,57.02
2022-08-20T15:42:17.956Z,56.62
2022-08-20T15:44:44.333Z,56.94
2022-08-20T15:47:10.711Z,56.87
2022-08-20T15:49:37.075Z,56.87
2022-08-20T15:52:03.441Z,57.20
2022-08-20T15:54:29.792Z,56.75
2022-08-20T15:56:56.152Z,56.80
2022-08-20T15:59:22.510Z,57.04
2022-08-20T16:01:48.966Z,56.71
2022-08-20T16:04:15.442Z,57.02
2022-08-20T16:06:41.814Z,56.88
2022-08-20T16:09:08.182Z,56.92
2022-08-20T16:11:34.543Z,56.97
2022-08-20T16:14:00.901Z,56.64
2022-08-20T16:16:27.264Z,56.87
2022-08-20T16:18:53.623Z,56.77
2022-08-20T16:21:19.982Z,57.04
2022-08-20T16:23:46.349Z,56.85
2022-08-20T16:26:12.723Z,57.01
2022-08-20T16:28:39.114Z,56.93
2022-08-20T16:31:05.484Z,56.97
2022-08-20T16:33:34.128Z,56.97
2022-08-20T16:36:00.496Z,56.50
2022-08-20T16:38:26.864Z,56.65
2022-08-20T16:40:53.221Z,56.59
2022-08-20T16:43:19.580Z,56.78
2022-08-20T16:45:51.128Z,56.63
2022-08-20T16:48:18.057Z,56.39
2022-08-20T16:50:44.417Z,56.40
2022-08-20T16:53:10.763Z,56.61
2022-08-20T16:55:37.129Z,56.51
2022-08-20T16:58:03.485Z,56.69
2022-08-20T17:00:29.859Z,56.49
2022-08-20T17:02:56.343Z,56.39
2022-08-20T17:05:22.797Z,56.21
2022-08-20T17:07:51.244Z,56.39
2022-08-20T17:10:17.839Z,56.32
2022-08-20T17:12:44.222Z,56.72
2022-08-20T17:15:10.613Z,56.45
2022-08-20T17:17:36.977Z,56.47
2022-08-20T17:20:03.341Z,56.71
2022-08-20T17:22:29.698Z,56.58
2022-08-20T17:24:56.059Z,56.49
2022-08-20T17:27:22.435Z,57.02
2022-08-20T17:29:49.553Z,57.22
2022-08-20T17:32:15.918Z,56.85
2022-08-20T17:34:42.292Z,57.07
2022-08-20T17:37:08.665Z,56.86
2022-08-20T17:39:35.061Z,56.85
2022-08-20T17:42:01.447Z,56.76
2022-08-20T17:44:27.805Z,56.70
2022-08-20T17:46:54.152Z,56.75
2022-08-20T17:49:20.528Z,56.96
2022-08-20T17:51:46.887Z,56.96
2022-08-20T17:54:13.258Z,56.89
2022-08-20T17:56:39.623Z,56.84
2022-08-20T17:59:06.091Z,56.98
2022-08-20T18:01:42.677Z,57.10
2022-08-20T18:04:11.559Z,57.23
2022-08-20T18:06:37.952Z,56.84
2022-08-20T18:09:04.308Z,57.00
2022-08-20T18:11:30.666Z,56.81
2022-08-20T18:13:57.041Z,56.58
2022-08-20T18:16:23.402Z,56.42
2022-08-20T18:18:56.297Z,56.87
2022-08-20T18:21:23.745Z,56.54
2022-08-20T18:23:50.117Z,56.92
2022-08-20T18:26:16.510Z,56.74
2022-08-20T18:28:42.879Z,56.94
2022-08-20T18:31:09.247Z,56.64
2022-08-20T18:33:35.722Z,56.99
2022-08-20T18:36:02.152Z,56.70
2022-08-20T18:38:28.529Z,56.96
2022-08-20T18:40:55.433Z,57.01
2022-08-20T18:43:21.833Z,56.94
2022-08-20T18:45:48.276Z,56.69
2022-08-20T18:48:14.689Z,57.04
2022-08-20T18:50:41.092Z,57.09
2022-08-20T18:53:07.462Z,56.96
2022-08-20T18:55:33.845Z,56.87
2022-08-20T18:58:00.227Z,56.72
2022-08-20T19:00:30.558Z,56.81
2022-08-20T19:02:57.215Z,56.98
2022-08-20T19:05:23.728Z,56.79
2022-08-20T19:07:50.177Z,56.88
2022-08-20T19:10:24.149Z,56.97
2022-08-20T19:12:54.678Z,56.96
2022-08-20T19:15:21.062Z,56.99
2022-08-20T19:17:47.440Z,56.81
2022-08-20T19:20:13.855Z,56.62
2022-08-20T19:22:40.220Z,57.00
2022-08-20T19:25:06.571Z,56.89
2022-08-20T19:27:32.980Z,56.79
2022-08-20T19:29:59.360Z,57.09
2022-08-20T19:32:25.743Z,56.75
2022-08-20T19:34:52.116Z,57.07
2022-08-20T19:37:35.009Z,56.98
2022-08-20T19:40:04.881Z,56.69
2022-08-20T19:42:31.570Z,56.62
2022-08-20T19:44:57.932Z,56.53
2022-08-20T19:47:24.287Z,56.89
2022-08-20T19:49:50.644Z,56.51
2022-08-20T19:52:17.048Z,56.73
2022-08-20T19:54:43.435Z,56.51
2022-08-20T19:57:09.805Z,56.87
2022-08-20T19:59:36.160Z,56.52
2022-08-20T20:02:03.947Z,56.70
2022-08-20T20:04:55.322Z,56.49
2022-08-20T20:07:24.168Z,56.82
2022-08-20T20:09:50.529Z,56.65
2022-08-20T20:12:22.726Z,56.61
2022-08-20T20:14:49.476Z,56.40
2022-08-20T20:17:21.027Z,56.31
2022-08-20T20:19:51.024Z,56.37
2022-08-20T20:22:20.200Z,56.60
2022-08-20T20:24:46.780Z,56.38
2022-08-20T20:27:13.634Z,56.74
2022-08-20T20:29:41.423Z,56.65
2022-08-20T20:32:07.789Z,56.33
2022-08-20T20:34:55.001Z,56.29
2022-08-20T20:37:25.357Z,56.50
2022-08-20T20:40:12.985Z,56.13
2022-08-20T20:42:45.779Z,56.48
2022-08-20T20:45:12.148Z,56.46
2022-08-20T20:47:38.508Z,56.58
2022-08-20T20:50:04.892Z,56.49
2022-08-20T20:52:31.257Z,56.41
2022-08-20T20:54:57.630Z,56.20
2022-08-20T20:57:37.875Z,56.44
2022-08-20T21:00:05.163Z,56.38
2022-08-20T21:02:33.139Z,56.18
2022-08-20T21:04:59.516Z,56.19
2022-08-20T21:07:29.251Z,56.44
2022-08-20T21:09:55.892Z,56.32
2022-08-20T21:12:22.312Z,56.41
2022-08-20T21:14:48.687Z,56.27
2022-08-20T21:17:15.082Z,56.79
2022-08-20T21:19:45.355Z,56.51
2022-08-20T21:22:11.848Z,56.18
2022-08-20T21:24:38.239Z,55.24
2022-08-20T21:27:04.599Z,55.11
2022-08-20T21:29:32.751Z,54.82
2022-08-20T21:31:59.324Z,54.52
2022-08-20T21:34:25.695Z,54.48
2022-08-20T21:36:52.067Z,54.31
2022-08-20T21:39:20.584Z,54.20
2022-08-20T21:41:46.931Z,54.60
2022-08-20T21:44:13.290Z,54.59
2022-08-20T21:46:39.652Z,54.41
2022-08-20T21:49:06.000Z,54.55
2022-08-20T21:51:32.476Z,54.03
2022-08-20T21:53:59.561Z,54.49
2022-08-20T21:56:25.925Z,54.27
2022-08-20T21:58:53.720Z,54.21
2022-08-20T22:01:21.689Z,53.69
2022-08-20T22:03:49.470Z,53.68
2022-08-20T22:06:18.097Z,54.01
2022-08-20T22:08:44.448Z,53.81
2022-08-20T22:11:10.820Z,53.89
2022-08-20T22:13:37.181Z,53.44
2022-08-20T22:16:03.551Z,54.05
2022-08-20T22:18:29.925Z,53.50
2022-08-20T22:20:56.300Z,53.40
2022-08-20T22:23:22.660Z,53.59
2022-08-20T22:25:49.019Z,53.30
2022-08-20T22:28:15.376Z,53.67
2022-08-20T22:30:42.469Z,53.80
2022-08-20T22:33:08.984Z,53.53
2022-08-20T22:35:35.344Z,53.78
2022-08-20T22:38:01.720Z,53.39
2022-08-20T22:40:28.089Z,53.25
2022-08-20T22:42:54.519Z,53.09
2022-08-20T22:45:20.998Z,53.48
2022-08-20T22:47:47.361Z,53.70
2022-08-20T22:50:13.713Z,53.72
2022-08-20T22:52:40.076Z,53.08
2022-08-20T22:55:06.438Z,53.17
2022-08-20T22:57:34.276Z,53.52
2022-08-20T23:00:00.824Z,53.68
2022-08-20T23:02:27.193Z,52.84
2022-08-20T23:04:53.564Z,53.25
2022-08-20T23:07:19.944Z,53.12
2022-08-20T23:09:46.302Z,53.15
2022-08-20T23:12:12.668Z,52.61
2022-08-20T23:14:39.036Z,52.98
2022-08-20T23:17:07.297Z,52.58
2022-08-20T23:19:35.434Z,52.82
2022-08-20T23:22:01.791Z,52.84
2022-08-20T23:24:28.147Z,53.33
2022-08-20T23:26:54.518Z,52.85
2022-08-20T23:29:22.498Z,52.58
2022-08-20T23:31:51.515Z,52.49
2022-08-20T23:34:17.875Z,52.68
2022-08-20T23:36:44.228Z,52.12
2022-08-20T23:39:10.624Z,52.23
2022-08-20T23:41:36.975Z,52.17
2022-08-20T23:44:26.630Z,51.74
2022-08-20T23:46:54.667Z,52.47
2022-08-20T23:49:21.124Z,52.14
2022-08-20T23:51:47.496Z,52.45
2022-08-20T23:54:13.862Z,51.96
2022-08-20T23:56:40.215Z,51.91
2022-08-20T23:59:06.572Z,52.10
